createdAt,value
2023-05-21T00:00:02.925Z,88358.00
2023-05-21T00:01:02.914Z,88356.00
2023-05-21T00:02:02.905Z,88350.00
2023-05-21T00:03:02.966Z,88356.00
2023-05-21T00:04:03.034Z,88354.00
2023-05-21T00:05:02.915Z,88352.00
2023-05-21T00:06:02.933Z,88352.00
2023-05-21T00:07:02.893Z,88350.00
2023-05-21T00:08:02.925Z,88352.00
2023-05-21T00:09:02.894Z,88356.00
2023-05-21T00:10:02.903Z,88356.00
2023-05-21T00:11:02.892Z,88350.00
2023-05-21T00:12:02.898Z,88346.00
2023-05-21T00:13:02.890Z,88346.00
2023-05-21T00:14:02.880Z,88352.00
2023-05-21T00:15:02.900Z,88350.00
2023-05-21T00:16:02.905Z,88348.00
2023-05-21T00:17:02.900Z,88350.00
2023-05-21T00:18:02.888Z,88348.00
2023-05-21T00:19:02.944Z,88346.00
2023-05-21T00:20:02.873Z,88345.00
2023-05-21T00:21:02.870Z,88352.00
2023-05-21T00:22:02.865Z,88346.00
2023-05-21T00:23:02.945Z,88345.00
2023-05-21T00:24:02.854Z,88341.00
2023-05-21T00:25:02.883Z,88343.00
2023-05-21T00:26:02.862Z,88343.00
2023-05-21T00:27:02.862Z,88345.00
2023-05-21T00:28:02.849Z,88345.00
2023-05-21T00:29:02.855Z,88345.00
2023-05-21T00:30:02.867Z,88345.00
2023-05-21T00:31:02.832Z,88345.00
2023-05-21T00:32:02.922Z,88348.00
2023-05-21T00:33:03.171Z,88350.00
2023-05-21T00:34:02.822Z,88346.00
2023-05-21T00:35:02.861Z,88345.00
2023-05-21T00:36:02.807Z,88345.00
2023-05-21T00:37:02.798Z,88341.00
2023-05-21T00:38:02.792Z,88341.00
2023-05-21T00:39:02.805Z,88341.00
2023-05-21T00:40:02.804Z,88339.00
2023-05-21T00:41:02.818Z,88337.00
2023-05-21T00:42:02.780Z,88343.00
2023-05-21T00:43:02.781Z,88341.00
2023-05-21T00:44:02.774Z,88346.00
2023-05-21T00:45:02.780Z,88343.00
2023-05-21T00:46:02.856Z,88346.00
2023-05-21T00:47:02.778Z,88335.00
2023-05-21T00:48:02.843Z,88335.00
2023-05-21T00:49:02.783Z,88339.00
2023-05-21T00:50:02.758Z,88343.00
2023-05-21T00:51:02.758Z,88341.00
2023-05-21T00:52:02.750Z,88346.00
2023-05-21T00:53:02.753Z,88345.00
2023-05-21T00:54:02.760Z,88343.00
2023-05-21T00:55:02.761Z,88341.00
2023-05-21T00:56:02.738Z,88339.00
2023-05-21T00:57:02.731Z,88337.00
2023-05-21T00:58:02.741Z,88339.00
2023-05-21T00:59:02.735Z,88339.00
2023-05-21T01:00:02.749Z,88339.00
2023-05-21T01:01:02.774Z,88341.00
2023-05-21T01:02:02.807Z,88333.00
2023-05-21T01:03:02.837Z,88329.00
2023-05-21T01:04:02.731Z,88331.00
2023-05-21T01:05:02.734Z,88327.00
2023-05-21T01:06:02.704Z,88329.00
2023-05-21T01:07:02.708Z,88331.00
2023-05-21T01:08:02.698Z,88329.00
2023-05-21T01:09:04.399Z,88327.00
2023-05-21T01:10:02.691Z,88319.00
2023-05-21T01:11:02.682Z,88327.00
2023-05-21T01:12:02.680Z,88327.00
2023-05-21T01:13:02.703Z,88331.00
2023-05-21T01:14:02.690Z,88329.00
2023-05-21T01:15:02.692Z,88323.00
2023-05-21T01:16:02.693Z,88327.00
2023-05-21T01:17:02.704Z,88327.00
2023-05-21T01:18:02.784Z,88325.00
2023-05-21T01:19:02.858Z,88327.00
2023-05-21T01:20:02.714Z,88329.00
2023-05-21T01:21:02.713Z,88331.00
2023-05-21T01:22:02.741Z,88323.00
2023-05-21T01:23:02.719Z,88319.00
2023-05-21T01:24:02.738Z,88315.00
2023-05-21T01:25:02.899Z,88313.00
2023-05-21T01:26:02.756Z,88315.00
2023-05-21T01:27:02.746Z,88315.00
2023-05-21T01:28:02.754Z,88319.00
2023-05-21T01:29:02.766Z,88315.00
2023-05-21T01:30:02.742Z,88319.00
2023-05-21T01:31:02.761Z,88319.00
2023-05-21T01:32:02.752Z,88317.00
2023-05-21T01:33:02.880Z,88321.00
2023-05-21T01:34:02.867Z,88319.00
2023-05-21T01:35:02.755Z,88317.00
2023-05-21T01:36:02.761Z,88317.00
2023-05-21T01:37:02.758Z,88319.00
2023-05-21T01:38:02.755Z,88317.00
2023-05-21T01:39:02.753Z,88323.00
2023-05-21T01:40:02.742Z,88315.00
2023-05-21T01:41:02.744Z,88311.00
2023-05-21T01:42:02.741Z,88309.00
2023-05-21T01:43:02.728Z,88315.00
2023-05-21T01:44:02.715Z,88315.00
2023-05-21T01:45:02.715Z,88315.00
2023-05-21T01:46:02.783Z,88315.00
2023-05-21T01:47:02.693Z,88315.00
2023-05-21T01:48:02.703Z,88319.00
2023-05-21T01:49:02.692Z,88321.00
2023-05-21T01:50:02.673Z,88319.00
2023-05-21T01:51:02.654Z,88319.00
2023-05-21T01:52:02.655Z,88321.00
2023-05-21T01:53:02.654Z,88317.00
2023-05-21T01:54:02.652Z,88315.00
2023-05-21T01:55:02.631Z,88317.00
2023-05-21T01:56:02.642Z,88315.00
2023-05-21T01:57:02.637Z,88309.00
2023-05-21T01:58:02.770Z,88315.00
2023-05-21T01:59:02.621Z,88317.00
2023-05-21T02:00:02.617Z,88317.00
2023-05-21T02:01:02.619Z,88315.00
2023-05-21T02:02:02.664Z,88311.00
2023-05-21T02:03:02.771Z,88311.00
2023-05-21T02:04:02.721Z,88307.00
2023-05-21T02:05:02.599Z,88305.00
2023-05-21T02:06:02.584Z,88303.00
2023-05-21T02:07:02.572Z,88303.00
2023-05-21T02:08:02.565Z,88303.00
2023-05-21T02:09:02.579Z,88303.00
2023-05-21T02:10:02.582Z,88307.00
2023-05-21T02:11:02.579Z,88305.00
2023-05-21T02:12:02.578Z,88305.00
2023-05-21T02:13:02.577Z,88301.00
2023-05-21T02:14:02.558Z,88303.00
2023-05-21T02:15:02.594Z,88296.00
2023-05-21T02:16:02.591Z,88296.00
2023-05-21T02:17:02.568Z,88296.00
2023-05-21T02:18:02.650Z,88296.00
2023-05-21T02:19:02.588Z,88298.00
2023-05-21T02:20:02.549Z,88296.00
2023-05-21T02:21:02.542Z,88290.00
2023-05-21T02:22:02.538Z,88290.00
2023-05-21T02:23:02.541Z,88284.00
2023-05-21T02:24:02.530Z,88282.00
2023-05-21T02:25:02.534Z,88282.00
2023-05-21T02:26:02.542Z,88282.00
2023-05-21T02:27:02.512Z,88282.00
2023-05-21T02:28:02.506Z,88284.00
2023-05-21T02:29:02.503Z,88282.00
2023-05-21T02:30:02.490Z,88284.00
2023-05-21T02:31:02.510Z,88280.00
2023-05-21T02:32:02.496Z,88280.00
2023-05-21T02:33:02.522Z,88278.00
2023-05-21T02:34:02.540Z,88274.00
2023-05-21T02:35:02.511Z,88274.00
2023-05-21T02:36:02.524Z,88276.00
2023-05-21T02:37:02.542Z,88276.00
2023-05-21T02:38:02.538Z,88276.00
2023-05-21T02:39:02.543Z,88276.00
2023-05-21T02:40:02.550Z,88274.00
2023-05-21T02:41:02.558Z,88270.00
2023-05-21T02:42:02.566Z,88266.00
2023-05-21T02:43:02.584Z,88272.00
2023-05-21T02:44:02.592Z,88270.00
2023-05-21T02:45:02.614Z,88270.00
2023-05-21T02:46:02.665Z,88276.00
2023-05-21T02:47:02.639Z,88274.00
2023-05-21T02:48:02.689Z,88276.00
2023-05-21T02:49:02.651Z,88278.00
2023-05-21T02:50:02.676Z,88280.00
2023-05-21T02:51:02.689Z,88280.00
2023-05-21T02:52:02.689Z,88282.00
2023-05-21T02:53:02.724Z,88280.00
2023-05-21T02:54:02.728Z,88286.00
2023-05-21T02:55:02.747Z,88284.00
2023-05-21T02:56:02.744Z,88282.00
2023-05-21T02:57:02.751Z,88284.00
2023-05-21T02:58:02.757Z,88290.00
2023-05-21T02:59:02.756Z,88284.00
2023-05-21T03:00:02.768Z,88286.00
2023-05-21T03:01:02.805Z,88284.00
2023-05-21T03:02:02.849Z,88284.00
2023-05-21T03:03:02.878Z,88286.00
2023-05-21T03:04:02.796Z,88284.00
2023-05-21T03:05:02.802Z,88286.00
2023-05-21T03:06:02.816Z,88288.00
2023-05-21T03:07:02.835Z,88286.00
2023-05-21T03:08:02.844Z,88276.00
2023-05-21T03:09:02.843Z,88280.00
2023-05-21T03:10:02.849Z,88286.00
2023-05-21T03:11:02.845Z,88282.00
2023-05-21T03:12:02.860Z,88284.00
2023-05-21T03:13:02.861Z,88290.00
2023-05-21T03:14:02.857Z,88292.00
2023-05-21T03:15:02.856Z,88296.00
2023-05-21T03:16:02.881Z,88292.00
2023-05-21T03:17:02.902Z,88286.00
2023-05-21T03:18:02.899Z,88292.00
2023-05-21T03:19:02.989Z,88290.00
2023-05-21T03:20:02.894Z,88290.00
2023-05-21T03:21:02.902Z,88288.00
2023-05-21T03:22:02.917Z,88290.00
2023-05-21T03:23:02.921Z,88292.00
2023-05-21T03:24:02.930Z,88290.00
2023-05-21T03:25:02.931Z,88290.00
2023-05-21T03:26:02.953Z,88292.00
2023-05-21T03:27:02.961Z,88292.00
2023-05-21T03:28:02.961Z,88284.00
2023-05-21T03:29:02.978Z,88294.00
2023-05-21T03:30:03.903Z,88298.00
2023-05-21T03:31:02.991Z,88296.00
2023-05-21T03:32:03.069Z,88292.00
2023-05-21T03:33:03.058Z,88294.00
2023-05-21T03:34:03.022Z,88298.00
2023-05-21T03:35:03.020Z,88301.00
2023-05-21T03:36:03.047Z,88298.00
2023-05-21T03:37:03.057Z,88292.00
2023-05-21T03:38:03.068Z,88298.00
2023-05-21T03:39:03.075Z,88298.00
2023-05-21T03:40:03.083Z,88299.00
2023-05-21T03:41:03.105Z,88299.00
2023-05-21T03:42:03.215Z,88298.00
2023-05-21T03:43:03.115Z,88301.00
2023-05-21T03:44:03.139Z,88305.00
2023-05-21T03:45:03.167Z,88305.00
2023-05-21T03:46:03.219Z,88301.00
2023-05-21T03:47:03.177Z,88303.00
2023-05-21T03:48:03.217Z,88301.00
2023-05-21T03:49:03.202Z,88301.00
2023-05-21T03:50:03.216Z,88305.00
2023-05-21T03:51:03.217Z,88305.00
2023-05-21T03:52:03.230Z,88311.00
2023-05-21T03:53:03.238Z,88311.00
2023-05-21T03:54:03.243Z,88311.00
2023-05-21T03:55:03.255Z,88313.00
2023-05-21T03:56:03.264Z,88315.00
2023-05-21T03:57:03.262Z,88313.00
2023-05-21T03:58:03.281Z,88311.00
2023-05-21T03:59:03.285Z,88309.00
2023-05-21T04:00:03.306Z,88307.00
2023-05-21T04:01:03.315Z,88307.00
2023-05-21T04:02:03.327Z,88307.00
2023-05-21T04:03:03.374Z,88307.00
2023-05-21T04:04:03.496Z,88303.00
2023-05-21T04:05:03.291Z,88307.00
2023-05-21T04:06:03.291Z,88315.00
2023-05-21T04:07:03.284Z,88313.00
2023-05-21T04:08:03.299Z,88313.00
2023-05-21T04:09:03.281Z,88311.00
2023-05-21T04:10:03.287Z,88305.00
2023-05-21T04:11:03.284Z,88309.00
2023-05-21T04:12:03.270Z,88309.00
2023-05-21T04:13:03.282Z,88309.00
2023-05-21T04:14:03.292Z,88305.00
2023-05-21T04:15:03.286Z,88305.00
2023-05-21T04:16:03.323Z,88307.00
2023-05-21T04:17:03.275Z,88309.00
2023-05-21T04:18:03.349Z,88307.00
2023-05-21T04:19:03.279Z,88303.00
2023-05-21T04:20:03.268Z,88305.00
2023-05-21T04:21:03.286Z,88305.00
2023-05-21T04:22:03.269Z,88305.00
2023-05-21T04:23:03.287Z,88307.00
2023-05-21T04:24:03.266Z,88311.00
2023-05-21T04:25:03.280Z,88311.00
2023-05-21T04:26:03.270Z,88307.00
2023-05-21T04:27:03.239Z,88305.00
2023-05-21T04:28:03.250Z,88307.00
2023-05-21T04:29:03.254Z,88309.00
2023-05-21T04:30:03.264Z,88311.00
2023-05-21T04:31:03.285Z,88311.00
2023-05-21T04:32:03.268Z,88313.00
2023-05-21T04:33:03.278Z,88315.00
2023-05-21T04:34:03.242Z,88309.00
2023-05-21T04:35:03.236Z,88307.00
2023-05-21T04:36:03.272Z,88307.00
2023-05-21T04:37:03.260Z,88305.00
2023-05-21T04:38:04.308Z,88303.00
2023-05-21T04:39:03.233Z,88299.00
2023-05-21T04:40:03.258Z,88301.00
2023-05-21T04:41:03.237Z,88307.00
2023-05-21T04:42:03.275Z,88309.00
2023-05-21T04:43:03.236Z,88305.00
2023-05-21T04:44:03.262Z,88303.00
2023-05-21T04:45:03.246Z,88303.00
2023-05-21T04:46:03.340Z,88299.00
2023-05-21T04:47:03.319Z,88299.00
2023-05-21T04:48:03.272Z,88294.00
2023-05-21T04:49:03.279Z,88294.00
2023-05-21T04:50:03.218Z,88294.00
2023-05-21T04:51:03.220Z,88292.00
2023-05-21T04:52:03.220Z,88290.00
2023-05-21T04:53:03.215Z,88290.00
2023-05-21T04:54:03.220Z,88286.00
2023-05-21T04:55:03.233Z,88288.00
2023-05-21T04:56:03.235Z,88288.00
2023-05-21T04:57:03.240Z,88284.00
2023-05-21T04:58:03.266Z,88284.00
2023-05-21T04:59:05.313Z,88288.00
2023-05-21T05:00:03.336Z,88292.00
2023-05-21T05:01:03.463Z,88292.00
2023-05-21T05:02:03.354Z,88292.00
2023-05-21T05:03:03.470Z,88294.00
2023-05-21T05:04:03.400Z,88292.00
2023-05-21T05:05:03.442Z,88296.00
2023-05-21T05:06:03.503Z,88292.00
2023-05-21T05:07:03.578Z,88290.00
2023-05-21T05:08:03.638Z,88290.00
2023-05-21T05:09:03.690Z,88288.00
2023-05-21T05:10:03.757Z,88290.00
2023-05-21T05:11:03.829Z,88292.00
2023-05-21T05:12:03.874Z,88284.00
2023-05-21T05:13:03.891Z,88290.00
2023-05-21T05:14:03.925Z,88286.00
2023-05-21T05:15:03.931Z,88286.00
2023-05-21T05:16:03.970Z,88286.00
2023-05-21T05:17:03.948Z,88282.00
2023-05-21T05:18:04.018Z,88282.00
2023-05-21T05:19:04.106Z,88284.00
2023-05-21T05:20:04.103Z,88282.00
2023-05-21T05:21:04.154Z,88284.00
2023-05-21T05:22:04.202Z,88280.00
2023-05-21T05:23:04.239Z,88284.00
2023-05-21T05:24:04.256Z,88280.00
2023-05-21T05:25:04.286Z,88286.00
2023-05-21T05:26:04.333Z,88284.00
2023-05-21T05:27:04.346Z,88286.00
2023-05-21T05:28:04.366Z,88292.00
2023-05-21T05:29:04.424Z,88292.00
2023-05-21T05:30:04.480Z,88288.00
2023-05-21T05:31:04.573Z,88288.00
2023-05-21T05:32:04.542Z,88288.00
2023-05-21T05:33:04.706Z,88290.00
2023-05-21T05:34:04.628Z,88292.00
2023-05-21T05:35:04.652Z,88292.00
2023-05-21T05:36:04.721Z,88288.00
2023-05-21T05:37:04.754Z,88290.00
2023-05-21T05:38:04.793Z,88290.00
2023-05-21T05:39:04.862Z,88290.00
2023-05-21T05:40:04.931Z,88290.00
2023-05-21T05:41:04.984Z,88284.00
2023-05-21T05:42:05.041Z,88284.00
2023-05-21T05:43:05.109Z,88280.00
2023-05-21T05:44:05.158Z,88282.00
2023-05-21T05:45:05.218Z,88284.00
2023-05-21T05:46:05.284Z,88282.00
2023-05-21T05:47:05.332Z,88278.00
2023-05-21T05:48:05.457Z,88278.00
2023-05-21T05:49:05.461Z,88278.00
2023-05-21T05:50:05.530Z,88278.00
2023-05-21T05:51:05.524Z,88276.00
2023-05-21T05:52:05.539Z,88282.00
2023-05-21T05:53:05.510Z,88286.00
2023-05-21T05:54:05.511Z,88286.00
2023-05-21T05:55:05.505Z,88280.00
2023-05-21T05:56:05.506Z,88278.00
2023-05-21T05:57:05.493Z,88274.00
2023-05-21T05:58:05.500Z,88276.00
2023-05-21T05:59:05.496Z,88268.00
2023-05-21T06:00:05.488Z,88270.00
2023-05-21T06:01:05.483Z,88276.00
2023-05-21T06:02:05.475Z,88280.00
2023-05-21T06:03:05.544Z,88280.00
2023-05-21T06:04:05.479Z,88278.00
2023-05-21T06:05:05.470Z,88282.00
2023-05-21T06:06:05.607Z,88276.00
2023-05-21T06:07:05.452Z,88278.00
2023-05-21T06:08:05.456Z,88276.00
2023-05-21T06:09:05.442Z,88278.00
2023-05-21T06:10:05.439Z,88274.00
2023-05-21T06:11:05.436Z,88276.00
2023-05-21T06:12:05.429Z,88274.00
2023-05-21T06:13:05.409Z,88262.00
2023-05-21T06:14:05.407Z,88272.00
2023-05-21T06:15:05.416Z,88266.00
2023-05-21T06:16:05.494Z,88274.00
2023-05-21T06:17:05.386Z,88274.00
2023-05-21T06:18:05.396Z,88280.00
2023-05-21T06:19:05.524Z,88276.00
2023-05-21T06:20:05.375Z,88278.00
2023-05-21T06:21:05.376Z,88282.00
2023-05-21T06:22:05.373Z,88274.00
2023-05-21T06:23:05.378Z,88274.00
2023-05-21T06:24:05.357Z,88272.00
2023-05-21T06:25:05.357Z,88278.00
2023-05-21T06:26:05.360Z,88280.00
2023-05-21T06:27:05.353Z,88280.00
2023-05-21T06:28:05.349Z,88288.00
2023-05-21T06:29:05.361Z,88280.00
2023-05-21T06:30:05.352Z,88276.00
2023-05-21T06:31:05.321Z,88282.00
2023-05-21T06:32:05.328Z,88278.00
2023-05-21T06:33:05.344Z,88274.00
2023-05-21T06:34:05.503Z,88276.00
2023-05-21T06:35:05.306Z,88274.00
2023-05-21T06:36:05.312Z,88276.00
2023-05-21T06:37:05.299Z,88278.00
2023-05-21T06:38:05.309Z,88284.00
2023-05-21T06:39:05.297Z,88284.00
2023-05-21T06:40:05.287Z,88288.00
2023-05-21T06:41:05.282Z,88288.00
2023-05-21T06:42:05.282Z,88288.00
2023-05-21T06:43:05.317Z,88288.00
2023-05-21T06:44:05.280Z,88290.00
2023-05-21T06:45:05.276Z,88290.00
2023-05-21T06:46:05.321Z,88286.00
2023-05-21T06:47:05.251Z,88294.00
2023-05-21T06:48:05.303Z,88290.00
2023-05-21T06:49:05.237Z,88288.00
2023-05-21T06:50:05.221Z,88286.00
2023-05-21T06:51:05.238Z,88286.00
2023-05-21T06:52:05.227Z,88288.00
2023-05-21T06:53:05.202Z,88294.00
2023-05-21T06:54:05.211Z,88292.00
2023-05-21T06:55:05.185Z,88290.00
2023-05-21T06:56:05.184Z,88284.00
2023-05-21T06:57:05.167Z,88288.00
2023-05-21T06:58:05.170Z,88288.00
2023-05-21T06:59:05.153Z,88284.00
2023-05-21T07:00:05.148Z,88288.00
2023-05-21T07:01:05.210Z,88286.00
2023-05-21T07:02:05.257Z,88288.00
2023-05-21T07:03:05.464Z,88290.00
2023-05-21T07:04:05.340Z,88294.00
2023-05-21T07:05:05.390Z,88294.00
2023-05-21T07:06:05.467Z,88301.00
2023-05-21T07:07:05.487Z,88288.00
2023-05-21T07:08:05.545Z,88296.00
2023-05-21T07:09:05.588Z,88296.00
2023-05-21T07:10:05.625Z,88292.00
2023-05-21T07:11:05.692Z,88298.00
2023-05-21T07:12:05.728Z,88298.00
2023-05-21T07:13:05.713Z,88294.00
2023-05-21T07:14:05.721Z,88292.00
2023-05-21T07:15:05.701Z,88292.00
2023-05-21T07:16:05.693Z,88292.00
2023-05-21T07:17:05.752Z,88290.00
2023-05-21T07:18:05.693Z,88290.00
2023-05-21T07:19:05.700Z,88290.00
2023-05-21T07:20:05.668Z,88290.00
2023-05-21T07:21:05.641Z,88294.00
2023-05-21T07:22:05.629Z,88298.00
2023-05-21T07:23:05.665Z,88296.00
2023-05-21T07:24:05.698Z,88296.00
2023-05-21T07:25:05.737Z,88296.00
2023-05-21T07:26:05.789Z,88294.00
2023-05-21T07:27:14.352Z,88296.00
2023-05-21T07:28:06.968Z,88290.00
2023-05-21T07:29:05.782Z,88294.00
2023-05-21T07:30:05.780Z,88292.00
2023-05-21T07:31:05.831Z,88298.00
2023-05-21T07:32:05.747Z,88296.00
2023-05-21T07:33:05.778Z,88294.00
2023-05-21T07:34:05.728Z,88292.00
2023-05-21T07:35:05.727Z,88294.00
2023-05-21T07:36:05.710Z,88294.00
2023-05-21T07:37:05.713Z,88292.00
2023-05-21T07:38:05.752Z,88292.00
2023-05-21T07:39:05.693Z,88286.00
2023-05-21T07:40:05.701Z,88288.00
2023-05-21T07:41:05.749Z,88292.00
2023-05-21T07:42:05.770Z,88292.00
2023-05-21T07:43:05.804Z,88292.00
2023-05-21T07:44:05.838Z,88296.00
2023-05-21T07:45:05.877Z,88286.00
2023-05-21T07:46:05.943Z,88288.00
2023-05-21T07:47:05.935Z,88284.00
2023-05-21T07:48:06.016Z,88282.00
2023-05-21T07:49:05.999Z,88282.00
2023-05-21T07:50:06.011Z,88286.00
2023-05-21T07:51:06.042Z,88292.00
2023-05-21T07:52:06.088Z,88288.00
2023-05-21T07:53:06.151Z,88290.00
2023-05-21T07:54:06.124Z,88288.00
2023-05-21T07:55:06.133Z,88290.00
2023-05-21T07:56:06.158Z,88294.00
2023-05-21T07:57:06.172Z,88286.00
2023-05-21T07:58:06.207Z,88288.00
2023-05-21T07:59:06.207Z,88286.00
2023-05-21T08:00:06.231Z,88284.00
2023-05-21T08:01:06.267Z,88282.00
2023-05-21T08:02:06.261Z,88280.00
2023-05-21T08:03:06.386Z,88276.00
2023-05-21T08:04:06.517Z,88276.00
2023-05-21T08:05:06.405Z,88280.00
2023-05-21T08:06:06.345Z,88280.00
2023-05-21T08:07:06.344Z,88276.00
2023-05-21T08:08:06.368Z,88280.00
2023-05-21T08:09:06.414Z,88278.00
2023-05-21T08:10:06.413Z,88280.00
2023-05-21T08:11:06.451Z,88278.00
2023-05-21T08:12:06.427Z,88280.00
2023-05-21T08:13:06.434Z,88280.00
2023-05-21T08:14:06.453Z,88278.00
2023-05-21T08:15:06.468Z,88280.00
2023-05-21T08:16:06.478Z,88278.00
2023-05-21T08:17:06.444Z,88274.00
2023-05-21T08:18:06.464Z,88278.00
2023-05-21T08:19:06.476Z,88272.00
2023-05-21T08:20:06.407Z,88272.00
2023-05-21T08:21:06.435Z,88274.00
2023-05-21T08:22:06.393Z,88270.00
2023-05-21T08:23:06.403Z,88274.00
2023-05-21T08:24:06.376Z,88272.00
2023-05-21T08:25:06.370Z,88276.00
2023-05-21T08:26:06.367Z,88272.00
2023-05-21T08:27:06.343Z,88276.00
2023-05-21T08:28:06.337Z,88278.00
2023-05-21T08:29:06.322Z,88274.00
2023-05-21T08:30:06.314Z,88274.00
2023-05-21T08:31:06.306Z,88274.00
2023-05-21T08:32:06.444Z,88268.00
2023-05-21T08:33:06.344Z,88268.00
2023-05-21T08:34:06.280Z,88270.00
2023-05-21T08:35:06.262Z,88272.00
2023-05-21T08:36:06.271Z,88272.00
2023-05-21T08:37:06.250Z,88274.00
2023-05-21T08:38:06.236Z,88272.00
2023-05-21T08:39:06.254Z,88274.00
2023-05-21T08:40:06.238Z,88272.00
2023-05-21T08:41:06.223Z,88274.00
2023-05-21T08:42:06.217Z,88278.00
2023-05-21T08:43:06.213Z,88280.00
2023-05-21T08:44:06.196Z,88278.00
2023-05-21T08:45:06.187Z,88280.00
2023-05-21T08:46:06.305Z,88276.00
2023-05-21T08:47:06.176Z,88280.00
2023-05-21T08:48:06.263Z,88274.00
2023-05-21T08:49:06.156Z,88278.00
2023-05-21T08:50:06.133Z,88278.00
2023-05-21T08:51:06.129Z,88278.00
2023-05-21T08:52:06.115Z,88280.00
2023-05-21T08:53:15.818Z,88276.00
2023-05-21T08:54:07.072Z,88278.00
2023-05-21T08:55:06.091Z,88282.00
2023-05-21T08:56:06.060Z,88284.00
2023-05-21T08:57:06.043Z,88292.00
2023-05-21T08:58:06.035Z,88294.00
2023-05-21T08:59:06.029Z,88290.00
2023-05-21T09:00:06.006Z,88294.00
2023-05-21T09:01:06.037Z,88292.00
2023-05-21T09:02:05.983Z,88284.00
2023-05-21T09:03:06.039Z,88284.00
2023-05-21T09:04:19.499Z,88286.00
2023-05-21T09:05:06.946Z,88292.00
2023-05-21T09:06:05.941Z,88292.00
2023-05-21T09:07:05.929Z,88290.00
2023-05-21T09:08:05.919Z,88292.00
2023-05-21T09:09:05.895Z,88294.00
2023-05-21T09:10:05.886Z,88292.00
2023-05-21T09:11:05.872Z,88296.00
2023-05-21T09:12:05.852Z,88290.00
2023-05-21T09:13:05.852Z,88290.00
2023-05-21T09:14:05.842Z,88292.00
2023-05-21T09:15:05.843Z,88298.00
2023-05-21T09:16:05.826Z,88290.00
2023-05-21T09:17:05.910Z,88292.00
2023-05-21T09:18:05.833Z,88292.00
2023-05-21T09:19:05.826Z,88290.00
2023-05-21T09:20:05.789Z,88288.00
2023-05-21T09:21:05.818Z,88288.00
2023-05-21T09:22:05.781Z,88286.00
2023-05-21T09:23:05.786Z,88294.00
2023-05-21T09:24:05.745Z,88288.00
2023-05-21T09:25:05.724Z,88290.00
2023-05-21T09:26:05.728Z,88288.00
2023-05-21T09:27:05.717Z,88292.00
2023-05-21T09:28:05.700Z,88290.00
2023-05-21T09:29:05.709Z,88292.00
2023-05-21T09:30:05.683Z,88290.00
2023-05-21T09:31:05.692Z,88288.00
2023-05-21T09:32:05.677Z,88290.00
2023-05-21T09:33:05.697Z,88284.00
2023-05-21T09:34:05.647Z,88286.00
2023-05-21T09:35:05.638Z,88284.00
2023-05-21T09:36:05.630Z,88284.00
2023-05-21T09:37:08.502Z,88282.00
2023-05-21T09:38:06.605Z,88282.00
2023-05-21T09:39:05.608Z,88278.00
2023-05-21T09:40:05.595Z,88284.00
2023-05-21T09:41:05.592Z,88282.00
2023-05-21T09:42:05.592Z,88284.00
2023-05-21T09:43:05.580Z,88284.00
2023-05-21T09:44:05.555Z,88284.00
2023-05-21T09:45:05.566Z,88290.00
2023-05-21T09:46:05.584Z,88286.00
2023-05-21T09:47:05.551Z,88284.00
2023-05-21T09:48:05.545Z,88284.00
2023-05-21T09:49:05.529Z,88286.00
2023-05-21T09:50:05.516Z,88286.00
2023-05-21T09:51:05.518Z,88290.00
2023-05-21T09:52:05.518Z,88282.00
2023-05-21T09:53:05.501Z,88284.00
2023-05-21T09:54:05.485Z,88282.00
2023-05-21T09:55:05.471Z,88280.00
2023-05-21T09:56:05.462Z,88278.00
2023-05-21T09:57:05.439Z,88278.00
2023-05-21T09:58:05.438Z,88278.00
2023-05-21T09:59:05.417Z,88282.00
2023-05-21T10:00:05.412Z,88272.00
2023-05-21T10:01:05.406Z,88278.00
2023-05-21T10:02:05.423Z,88276.00
2023-05-21T10:03:05.396Z,88278.00
2023-05-21T10:04:05.406Z,88276.00
2023-05-21T10:05:05.373Z,88282.00
2023-05-21T10:06:05.351Z,88280.00
2023-05-21T10:07:05.360Z,88278.00
2023-05-21T10:08:05.341Z,88286.00
2023-05-21T10:09:05.902Z,88272.00
2023-05-21T10:10:05.334Z,88272.00
2023-05-21T10:11:05.386Z,88272.00
2023-05-21T10:12:05.430Z,88274.00
2023-05-21T10:13:05.476Z,88276.00
2023-05-21T10:14:05.539Z,88276.00
2023-05-21T10:15:05.580Z,88274.00
2023-05-21T10:16:05.670Z,88276.00
2023-05-21T10:17:05.662Z,88274.00
2023-05-21T10:18:05.766Z,88274.00
2023-05-21T10:19:05.742Z,88274.00
2023-05-21T10:20:05.732Z,88272.00
2023-05-21T10:21:05.754Z,88274.00
2023-05-21T10:22:05.779Z,88276.00
2023-05-21T10:23:05.828Z,88272.00
2023-05-21T10:24:05.827Z,88278.00
2023-05-21T10:25:05.825Z,88274.00
2023-05-21T10:26:05.829Z,88280.00
2023-05-21T10:27:05.817Z,88278.00
2023-05-21T10:28:05.802Z,88276.00
2023-05-21T10:29:05.788Z,88276.00
2023-05-21T10:30:05.783Z,88278.00
2023-05-21T10:31:05.770Z,88278.00
2023-05-21T10:32:05.790Z,88278.00
2023-05-21T10:33:05.798Z,88276.00
2023-05-21T10:34:05.751Z,88276.00
2023-05-21T10:35:05.741Z,88276.00
2023-05-21T10:36:05.759Z,88272.00
2023-05-21T10:37:05.747Z,88272.00
2023-05-21T10:38:05.780Z,88268.00
2023-05-21T10:39:05.756Z,88266.00
2023-05-21T10:40:05.735Z,88262.00
2023-05-21T10:41:05.754Z,88262.00
2023-05-21T10:42:05.723Z,88264.00
2023-05-21T10:43:05.692Z,88262.00
2023-05-21T10:44:05.674Z,88258.00
2023-05-21T10:45:05.673Z,88260.00
2023-05-21T10:46:05.715Z,88262.00
2023-05-21T10:47:05.644Z,88262.00
2023-05-21T10:48:05.643Z,88262.00
2023-05-21T10:49:05.614Z,88258.00
2023-05-21T10:50:05.608Z,88258.00
2023-05-21T10:51:05.583Z,88256.00
2023-05-21T10:52:05.561Z,88258.00
2023-05-21T10:53:05.536Z,88256.00
2023-05-21T10:54:05.516Z,88256.00
2023-05-21T10:55:05.498Z,88256.00
2023-05-21T10:56:05.474Z,88254.00
2023-05-21T10:57:05.481Z,88252.00
2023-05-21T10:58:05.440Z,88256.00
2023-05-21T10:59:05.443Z,88254.00
2023-05-21T11:00:05.420Z,88256.00
2023-05-21T11:01:05.453Z,88258.00
2023-05-21T11:02:05.438Z,88258.00
2023-05-21T11:03:05.489Z,88254.00
2023-05-21T11:04:05.368Z,88258.00
2023-05-21T11:05:05.384Z,88258.00
2023-05-21T11:06:05.400Z,88260.00
2023-05-21T11:07:05.388Z,88262.00
2023-05-21T11:08:05.371Z,88258.00
2023-05-21T11:09:05.377Z,88258.00
2023-05-21T11:10:05.376Z,88262.00
2023-05-21T11:11:05.370Z,88262.00
2023-05-21T11:12:05.356Z,88256.00
2023-05-21T11:13:05.347Z,88258.00
2023-05-21T11:14:05.346Z,88256.00
2023-05-21T11:15:05.333Z,88256.00
2023-05-21T11:16:05.327Z,88254.00
2023-05-21T11:17:05.356Z,88252.00
2023-05-21T11:18:05.371Z,88252.00
2023-05-21T11:19:05.351Z,88252.00
2023-05-21T11:20:05.299Z,88252.00
2023-05-21T11:21:05.286Z,88252.00
2023-05-21T11:22:05.252Z,88250.00
2023-05-21T11:23:05.228Z,88248.00
2023-05-21T11:24:05.207Z,88250.00
2023-05-21T11:25:05.203Z,88252.00
2023-05-21T11:26:05.185Z,88250.00
2023-05-21T11:27:05.163Z,88250.00
2023-05-21T11:28:05.143Z,88244.00
2023-05-21T11:29:05.133Z,88244.00
2023-05-21T11:30:05.122Z,88248.00
2023-05-21T11:31:05.119Z,88248.00
2023-05-21T11:32:05.083Z,88244.00
2023-05-21T11:33:05.095Z,88239.00
2023-05-21T11:34:05.062Z,88241.00
2023-05-21T11:35:05.056Z,88248.00
2023-05-21T11:36:05.057Z,88243.00
2023-05-21T11:37:05.022Z,88241.00
2023-05-21T11:38:05.004Z,88239.00
2023-05-21T11:39:04.987Z,88241.00
2023-05-21T11:40:04.978Z,88237.00
2023-05-21T11:41:04.977Z,88237.00
2023-05-21T11:42:05.017Z,88239.00
2023-05-21T11:43:04.942Z,88237.00
2023-05-21T11:44:04.928Z,88233.00